ADDS METAR Data INFO
IDs: Format: Raw Decoded Include TAF

Data at: 0939 UTC 25 Jun 2018

KRSV 250935Z AUTO 09003KT 10SM SCT014 BKN065 OVC095 22/21 A3000 RMK AO2 T02170212
KRSV 250915Z AUTO 09003KT 10SM SCT037 SCT065 OVC095 22/21 A3000 RMK AO2 T02150211
KRSV 250855Z AUTO 00000KT 10SM SCT035 BKN065 OVC090 22/21 A2999 RMK AO2 T02150210
KRSV 250835Z AUTO 14003KT 10SM BKN037 OVC048 22/21 A2998 RMK AO2 T02170211
KRSV 250815Z AUTO 14003KT 10SM BKN037 BKN044 OVC055 22/21 A2997 RMK AO2 T02170211
KRSV 250755Z AUTO 14004KT 10SM SCT037 OVC055 22/21 A2998 RMK AO2 T02180211
KRSV 250735Z AUTO 00000KT 10SM SCT039 OVC055 22/22 A2998 RMK AO2 T02200216
KRSV 250715Z AUTO 00000KT 10SM SCT039 SCT047 OVC055 22/22 A2999 RMK AO2 T02200216
KRSV 250655Z AUTO 00000KT 10SM BKN039 OVC047 22/22 A2999 RMK AO2 LTG DSNT E T02220219
KRSV 250635Z AUTO 00000KT 10SM SCT041 BKN049 OVC090 22/22 A2999 RMK AO2 T02220217
KRSV 250615Z AUTO 00000KT 10SM BKN047 OVC060 22/22 A2999 RMK AO2 T02230220
KRSV 250555Z AUTO 00000KT 10SM SCT045 BKN060 OVC085 23/22 A2998 RMK AO2 T02250220 10267 20223 402860160
KRSV 250535Z AUTO 14003KT 10SM BKN045 OVC100 23/22 A2997 RMK AO2 T02250219
KRSV 250515Z AUTO 16003KT 10SM BKN043 BKN049 OVC100 22/22 A2997 RMK AO2 T02230218
KRSV 250455Z AUTO 18003KT 10SM SCT039 OVC100 22/22 A2998 RMK AO2 T02230220
KRSV 250435Z AUTO 00000KT 10SM BKN100 23/22 A2998 RMK AO2 T02250219
KRSV 250415Z AUTO 10003KT 10SM BKN110 23/22 A2998 RMK AO2 T02300221
KRSV 250355Z AUTO 00000KT 10SM BKN110 23/22 A3000 RMK AO2 T02290218
KRSV 250335Z AUTO 00000KT 10SM OVC110 23/22 A3001 RMK AO2 T02310220
KRSV 250315Z AUTO 00000KT 10SM SCT080 OVC110 23/23 A3001 RMK AO2 T02310225
KRSV 250255Z AUTO 00000KT 10SM SCT080 OVC120 23/22 A3001 RMK AO2 T02340218
KRSV 250235Z AUTO 00000KT 10SM BKN120 23/22 A3001 RMK AO2 T02340220
KRSV 250215Z AUTO 00000KT 10SM CLR 24/22 A2999 RMK AO2 T02350220
KRSV 250155Z AUTO 00000KT 10SM SCT110 24/22 A2998 RMK AO2 T02410219
KRSV 250135Z AUTO 00000KT 10SM SCT080 BKN110 24/22 A2998 RMK AO2 T02400221
KRSV 250115Z AUTO 00000KT 10SM BKN080 OVC110 25/22 A2997 RMK AO2 T02450218
KRSV 250055Z AUTO 00000KT 10SM BKN080 BKN110 25/21 A2996 RMK AO2 T02520211
KRSV 250035Z AUTO 10003KT 10SM SCT100 26/21 A2995 RMK AO2 T02570210
KRSV 250015Z AUTO 08004KT 10SM BKN110 26/21 A2995 RMK AO2 T02610207
KRSV 242355Z AUTO 09005KT 10SM CLR 27/20 A2995 RMK AO2 T02680198 10286 20264
KRSV 242335Z AUTO 12003KT 10SM CLR 27/20 A2995 RMK AO2 T02670198
KRSV 242315Z AUTO 11003KT 10SM SCT100 27/19 A2996 RMK AO2 T02700191
KRSV 242255Z AUTO 00000KT 10SM SCT100 27/19 A2996 RMK AO2 T02720186
KRSV 242235Z AUTO 00000KT 10SM CLR 28/19 A2996 RMK AO2 T02760188
KRSV 242215Z AUTO 08007KT 10SM CLR 28/19 A2995 RMK AO2 T02820193
KRSV 242155Z AUTO 03007KT 10SM CLR 29/19 A2994 RMK AO2 T02850192
KRSV 242135Z AUTO 02008KT 10SM SCT041 SCT050 28/19 A2995 RMK AO2 T02800192
KRSV 242115Z AUTO 01005KT 10SM SCT041 BKN050 BKN060 28/19 A2996 RMK AO2 T02780193
KRSV 242055Z AUTO 00000KT 10SM BKN039 BKN050 OVC060 27/19 A2998 RMK AO2 T02690192
KRSV 242035Z AUTO 22003KT 10SM SCT039 BKN050 27/20 A2999 RMK AO2 T02700198
KRSV 242015Z AUTO 29005KT 10SM SCT039 28/19 A2999 RMK AO2 T02770190
KRSV 241955Z AUTO 28003KT 10SM SCT039 29/20 A2999 RMK AO2 T02860196
KRSV 241935Z AUTO 30003KT 10SM SCT037 SCT043 27/19 A2997 RMK AO2 T02740191
KRSV 241915Z AUTO 00000KT 10SM BKN037 BKN045 27/19 A2998 RMK AO2 T02710193
KRSV 241855Z AUTO 28004KT 10SM OVC037 27/19 A2999 RMK AO2 T02700188
KRSV 241835Z AUTO 27005KT 10SM BKN035 27/19 A2999 RMK AO2 T02730190
KRSV 241815Z AUTO 31004KT 10SM SCT035 27/19 A2998 RMK AO2 T02710189
KRSV 241755Z AUTO 30006KT 10SM SCT033 27/19 A2998 RMK AO2 T02690191 10270 20185
KRSV 241735Z AUTO 33004KT 10SM SCT033 27/19 A2998 RMK AO2 T02700188
KRSV 241715Z AUTO 34007KT 10SM SCT033 27/19 A2997 RMK AO2 T02660189
KRSV 241655Z AUTO 01004KT 10SM CLR 26/19 A2998 RMK AO2 T02610189
KRSV 241635Z AUTO 29005KT 10SM CLR 26/19 A2998 RMK AO2 T02620191
KRSV 241615Z AUTO 27003KT 10SM SCT028 SCT035 26/19 A2998 RMK AO2 T02570192
KRSV 241555Z AUTO 34004KT 10SM SCT026 SCT035 26/19 A2997 RMK AO2 T02550190
KRSV 241535Z AUTO 31003KT 10SM SCT024 25/19 A2997 RMK AO2 T02530193
KRSV 241515Z AUTO 31004KT 10SM CLR 25/19 A2996 RMK AO2 T02490194
KRSV 241455Z AUTO 33005KT 10SM CLR 25/19 A2996 RMK AO2 T02480194
KRSV 241435Z AUTO 30004KT 10SM SCT019 24/20 A2997 RMK AO2 T02410196
KRSV 241415Z AUTO 00000KT 10SM CLR 23/19 A2997 RMK AO2 T02330193
KRSV 241355Z AUTO 32004KT 10SM CLR 23/19 A2996 RMK AO2 T02330194
KRSV 241335Z AUTO 33004KT 10SM CLR 23/19 A2995 RMK AO2 T02290190
KRSV 241315Z AUTO 00000KT 10SM CLR 22/19 A2995 RMK AO2 T02200191
KRSV 241255Z AUTO 00000KT 10SM CLR 21/19 A2995 RMK AO2 T02100193
KRSV 241235Z AUTO 00000KT 10SM CLR 20/19 A2994 RMK AO2 T01990191
KRSV 241215Z AUTO 00000KT 10SM CLR 19/19 A2992 RMK AO2 T01900190
KRSV 241155Z AUTO 00000KT 7SM CLR 18/18 A2991 RMK AO2 T01840184 10184 20160
KRSV 241135Z AUTO 00000KT 5SM BR CLR 18/18 A2990 RMK AO2 T01780178
KRSV 241115Z AUTO 00000KT 4SM BR CLR 17/17 A2990 RMK AO2 T01700170
KRSV 241055Z AUTO 00000KT 7SM CLR 16/16 A2991 RMK AO2 T01620162
KRSV 241035Z AUTO 00000KT 4SM BR CLR 16/16 A2990 RMK AO2 T01610161
KRSV 241015Z AUTO 00000KT 7SM CLR 16/16 A2990 RMK AO2 T01610161
KRSV 240955Z AUTO 00000KT 7SM CLR 16/16 A2990 RMK AO2 T01610161
KRSV 240935Z AUTO 00000KT 7SM SCT002 17/17 A2990 RMK AO2 T01650165
KRSV 240915Z AUTO 00000KT 3/4SM BR OVC002 17/17 A2988 RMK AO2 T01650165
KRSV 240855Z AUTO 00000KT 1 1/4SM BR SCT002 17/17 A2987 RMK AO2 T01660166
KRSV 240835Z AUTO 00000KT 2SM BR SCT002 17/17 A2987 RMK AO2 VIS 1/2V5 T01690169
KRSV 240815Z AUTO 00000KT 4SM BR SCT002 17/17 A2987 RMK AO2 T01700170
KRSV 240755Z AUTO 00000KT 5SM BR CLR 17/17 A2987 RMK AO2 T01700170
KRSV 240735Z AUTO 00000KT 5SM BR CLR 18/18 A2987 RMK AO2 T01770177
KRSV 240715Z AUTO 00000KT 7SM SCT080 18/18 A2986 RMK AO2 T01780178
KRSV 240655Z AUTO 00000KT 7SM BKN080 18/18 A2986 RMK AO2 T01770177
KRSV 240635Z AUTO 00000KT 7SM CLR 18/18 A2986 RMK AO2 T01780178
KRSV 240615Z AUTO 00000KT 7SM SCT070 18/18 A2987 RMK AO2 T01800180
KRSV 240555Z AUTO 00000KT 7SM BKN070 18/18 A2987 RMK AO2 T01810181 10244 20181 402620181
KRSV 240535Z AUTO 00000KT 7SM BKN070 18/18 A2986 RMK AO2 T01810181
KRSV 240515Z AUTO 00000KT 7SM SCT070 18/18 A2987 RMK AO2 T01820182
KRSV 240455Z AUTO 00000KT 7SM CLR 19/19 A2987 RMK AO2 T01860186
KRSV 240435Z AUTO 00000KT 10SM CLR 19/19 A2986 RMK AO2 T01900190
KRSV 240415Z AUTO 00000KT 10SM CLR 19/19 A2986 RMK AO2 T01890189
KRSV 240355Z AUTO 00000KT 10SM CLR 19/19 A2985 RMK AO2 T01910191
KRSV 240335Z AUTO 00000KT 10SM CLR 20/20 A2985 RMK AO2 T01950195
KRSV 240315Z AUTO 00000KT 10SM CLR 20/20 A2984 RMK AO2 T02000200
KRSV 240255Z AUTO 00000KT 10SM CLR 20/20 A2983 RMK AO2 T02000200
KRSV 240235Z AUTO 00000KT 10SM SCT032 21/20 A2983 RMK AO2 T02050203
KRSV 240215Z AUTO 00000KT 10SM SCT032 21/21 A2982 RMK AO2 T02090206
KRSV 240155Z AUTO 00000KT 10SM SCT030 SCT035 22/20 A2982 RMK AO2 T02170202
KRSV 240135Z AUTO 00000KT 10SM CLR 22/21 A2982 RMK AO2 T02210206
KRSV 240115Z AUTO 00000KT 10SM SCT080 23/22 A2982 RMK AO2 T02270215
KRSV 240055Z AUTO 00000KT 10SM SCT080 24/21 A2981 RMK AO2 T02350209
KRSV 240035Z AUTO 00000KT 10SM SCT031 SCT080 24/21 A2981 RMK AO2 T02360206
KRSV 240015Z AUTO 00000KT 10SM SCT027 BKN034 BKN110 24/20 A2981 RMK AO2 T02400200
KRSV 232355Z AUTO 00000KT 10SM SCT028 BKN035 BKN080 25/20 A2981 RMK AO2 T02450196 10262 20230
KRSV 232335Z AUTO 00000KT 10SM SCT029 BKN037 OVC080 24/20 A2981 RMK AO2 T02420198
KRSV 232315Z AUTO 28004KT 10SM BKN029 OVC041 24/20 A2981 RMK AO2 T02350200
KRSV 232255Z AUTO 00000KT 10SM BKN033 BKN041 OVC047 23/21 A2981 RMK AO2 T02330207
KRSV 232235Z AUTO 25004KT 10SM -RA SCT033 BKN042 OVC065 24/19 A2981 RMK AO2 T02370193
KRSV 232215Z AUTO 25004KT 10SM SCT032 BKN041 OVC065 24/19 A2981 RMK AO2 T02400190
KRSV 232155Z AUTO 26005KT 10SM BKN030 BKN045 OVC070 25/19 A2981 RMK AO2 T02460192